sensor_id;sensor_type;location;lat;lon;timestamp;P1;durP1;ratioP1;P2;durP2;ratioP2
73251;SDS011;61473;50.834;4.552;2022-09-09T00:03:31;4.10;;;0.82;;
73251;SDS011;61473;50.834;4.552;2022-09-09T00:06:30;4.18;;;0.60;;
73251;SDS011;61473;50.834;4.552;2022-09-09T00:11:43;4.35;;;0.80;;
73251;SDS011;61473;50.834;4.552;2022-09-09T00:22:55;3.92;;;0.98;;
73251;SDS011;61473;50.834;4.552;2022-09-09T00:28:24;2.33;;;1.00;;
73251;SDS011;61473;50.834;4.552;2022-09-09T00:30:52;2.40;;;0.70;;
73251;SDS011;61473;50.834;4.552;2022-09-09T00:33:20;5.18;;;0.75;;
73251;SDS011;61473;50.834;4.552;2022-09-09T00:35:49;1.27;;;0.60;;
73251;SDS011;61473;50.834;4.552;2022-09-09T00:38:19;4.32;;;1.25;;
73251;SDS011;61473;50.834;4.552;2022-09-09T00:41:03;3.03;;;0.70;;
73251;SDS011;61473;50.834;4.552;2022-09-09T00:43:52;3.90;;;1.00;;
73251;SDS011;61473;50.834;4.552;2022-09-09T00:54:52;3.83;;;1.25;;
73251;SDS011;61473;50.834;4.552;2022-09-09T00:57:29;1.42;;;0.63;;
73251;SDS011;61473;50.834;4.552;2022-09-09T01:02:31;1.23;;;0.70;;
73251;SDS011;61473;50.834;4.552;2022-09-09T01:05:15;2.95;;;0.98;;
73251;SDS011;61473;50.834;4.552;2022-09-09T01:08:05;3.47;;;0.88;;
73251;SDS011;61473;50.834;4.552;2022-09-09T01:10:48;3.22;;;0.80;;
73251;SDS011;61473;50.834;4.552;2022-09-09T01:13:25;4.78;;;1.45;;
73251;SDS011;61473;50.834;4.552;2022-09-09T01:15:55;3.85;;;1.40;;
73251;SDS011;61473;50.834;4.552;2022-09-09T01:18:26;3.42;;;0.70;;
73251;SDS011;61473;50.834;4.552;2022-09-09T01:23:47;3.03;;;1.00;;
73251;SDS011;61473;50.834;4.552;2022-09-09T01:26:25;4.75;;;1.10;;
73251;SDS011;61473;50.834;4.552;2022-09-09T01:28:55;4.30;;;0.73;;
73251;SDS011;61473;50.834;4.552;2022-09-09T01:31:27;3.67;;;0.90;;
73251;SDS011;61473;50.834;4.552;2022-09-09T01:34:04;2.83;;;1.58;;
73251;SDS011;61473;50.834;4.552;2022-09-09T01:36:56;2.67;;;0.70;;
73251;SDS011;61473;50.834;4.552;2022-09-09T01:39:25;3.28;;;0.77;;
73251;SDS011;61473;50.834;4.552;2022-09-09T01:41:52;2.40;;;0.93;;
73251;SDS011;61473;50.834;4.552;2022-09-09T01:44:19;6.32;;;1.13;;
73251;SDS011;61473;50.834;4.552;2022-09-09T01:46:45;4.53;;;1.00;;
73251;SDS011;61473;50.834;4.552;2022-09-09T01:49:11;6.32;;;1.88;;
73251;SDS011;61473;50.834;4.552;2022-09-09T01:51:37;1.52;;;0.60;;
73251;SDS011;61473;50.834;4.552;2022-09-09T01:54:06;6.40;;;1.00;;
73251;SDS011;61473;50.834;4.552;2022-09-09T01:59:07;3.95;;;1.42;;
73251;SDS011;61473;50.834;4.552;2022-09-09T02:01:47;3.53;;;1.15;;
73251;SDS011;61473;50.834;4.552;2022-09-09T02:04:32;4.32;;;1.02;;
73251;SDS011;61473;50.834;4.552;2022-09-09T02:09:33;4.85;;;1.17;;
73251;SDS011;61473;50.834;4.552;2022-09-09T02:12:01;3.53;;;0.85;;
73251;SDS011;61473;50.834;4.552;2022-09-09T02:14:35;1.98;;;0.82;;
73251;SDS011;61473;50.834;4.552;2022-09-09T02:17:10;3.38;;;1.02;;
73251;SDS011;61473;50.834;4.552;2022-09-09T02:20:20;2.90;;;0.88;;
73251;SDS011;61473;50.834;4.552;2022-09-09T02:22:35;3.35;;;1.17;;
73251;SDS011;61473;50.834;4.552;2022-09-09T02:25:05;2.60;;;1.20;;
73251;SDS011;61473;50.834;4.552;2022-09-09T02:27:35;3.05;;;0.80;;
73251;SDS011;61473;50.834;4.552;2022-09-09T02:30:01;3.05;;;1.17;;
73251;SDS011;61473;50.834;4.552;2022-09-09T02:32:30;6.88;;;1.45;;
73251;SDS011;61473;50.834;4.552;2022-09-09T02:35:12;4.95;;;0.82;;
73251;SDS011;61473;50.834;4.552;2022-09-09T02:37:42;4.25;;;1.25;;
73251;SDS011;61473;50.834;4.552;2022-09-09T02:40:11;3.50;;;1.83;;
73251;SDS011;61473;50.834;4.552;2022-09-09T02:42:40;4.85;;;1.35;;
73251;SDS011;61473;50.834;4.552;2022-09-09T02:45:10;5.30;;;1.55;;
73251;SDS011;61473;50.834;4.552;2022-09-09T02:47:41;5.05;;;1.17;;
73251;SDS011;61473;50.834;4.552;2022-09-09T02:50:20;3.22;;;0.95;;
73251;SDS011;61473;50.834;4.552;2022-09-09T02:52:54;8.43;;;1.55;;
73251;SDS011;61473;50.834;4.552;2022-09-09T02:58:09;3.97;;;0.80;;
73251;SDS011;61473;50.834;4.552;2022-09-09T03:00:39;4.25;;;1.17;;
73251;SDS011;61473;50.834;4.552;2022-09-09T03:03:05;3.70;;;1.20;;
73251;SDS011;61473;50.834;4.552;2022-09-09T03:05:33;2.10;;;1.02;;
73251;SDS011;61473;50.834;4.552;2022-09-09T03:08:00;6.65;;;1.00;;
73251;SDS011;61473;50.834;4.552;2022-09-09T03:10:27;6.75;;;1.20;;
73251;SDS011;61473;50.834;4.552;2022-09-09T03:12:52;7.05;;;1.13;;
73251;SDS011;61473;50.834;4.552;2022-09-09T03:15:18;2.55;;;0.90;;
73251;SDS011;61473;50.834;4.552;2022-09-09T03:17:44;7.60;;;1.63;;
73251;SDS011;61473;50.834;4.552;2022-09-09T03:20:10;6.13;;;1.45;;
73251;SDS011;61473;50.834;4.552;2022-09-09T03:22:35;3.67;;;1.70;;
73251;SDS011;61473;50.834;4.552;2022-09-09T03:25:01;2.00;;;1.40;;
73251;SDS011;61473;50.834;4.552;2022-09-09T03:27:30;5.93;;;1.50;;
73251;SDS011;61473;50.834;4.552;2022-09-09T03:29:56;5.57;;;1.45;;
73251;SDS011;61473;50.834;4.552;2022-09-09T03:32:22;6.20;;;1.10;;
73251;SDS011;61473;50.834;4.552;2022-09-09T03:34:50;7.57;;;1.48;;
73251;SDS011;61473;50.834;4.552;2022-09-09T03:37:17;4.75;;;1.92;;
73251;SDS011;61473;50.834;4.552;2022-09-09T03:39:43;6.47;;;2.15;;
73251;SDS011;61473;50.834;4.552;2022-09-09T03:42:12;6.15;;;0.88;;
73251;SDS011;61473;50.834;4.552;2022-09-09T03:44:45;5.22;;;1.20;;
73251;SDS011;61473;50.834;4.552;2022-09-09T03:47:16;6.03;;;0.88;;
73251;SDS011;61473;50.834;4.552;2022-09-09T03:49:43;6.93;;;1.23;;
73251;SDS011;61473;50.834;4.552;2022-09-09T03:52:09;3.88;;;1.40;;
73251;SDS011;61473;50.834;4.552;2022-09-09T03:54:35;5.03;;;1.25;;
73251;SDS011;61473;50.834;4.552;2022-09-09T03:57:00;8.48;;;1.80;;
73251;SDS011;61473;50.834;4.552;2022-09-09T03:59:27;5.50;;;1.30;;
73251;SDS011;61473;50.834;4.552;2022-09-09T04:01:53;3.63;;;1.20;;
73251;SDS011;61473;50.834;4.552;2022-09-09T04:04:19;7.15;;;1.33;;
73251;SDS011;61473;50.834;4.552;2022-09-09T04:06:45;5.07;;;1.17;;
73251;SDS011;61473;50.834;4.552;2022-09-09T04:09:13;4.90;;;1.13;;
73251;SDS011;61473;50.834;4.552;2022-09-09T04:11:39;4.25;;;1.13;;
73251;SDS011;61473;50.834;4.552;2022-09-09T04:14:05;6.88;;;1.20;;
73251;SDS011;61473;50.834;4.552;2022-09-09T04:16:31;4.35;;;1.25;;
73251;SDS011;61473;50.834;4.552;2022-09-09T04:18:58;3.78;;;1.35;;
73251;SDS011;61473;50.834;4.552;2022-09-09T04:21:25;9.05;;;2.20;;
73251;SDS011;61473;50.834;4.552;2022-09-09T04:23:51;5.75;;;1.40;;
73251;SDS011;61473;50.834;4.552;2022-09-09T04:26:17;6.88;;;1.27;;
73251;SDS011;61473;50.834;4.552;2022-09-09T04:28:43;6.15;;;1.85;;
73251;SDS011;61473;50.834;4.552;2022-09-09T04:31:18;6.75;;;1.45;;
73251;SDS011;61473;50.834;4.552;2022-09-09T04:33:47;5.22;;;1.25;;
73251;SDS011;61473;50.834;4.552;2022-09-09T04:36:14;8.10;;;1.45;;
73251;SDS011;61473;50.834;4.552;2022-09-09T04:38:40;7.20;;;1.60;;
73251;SDS011;61473;50.834;4.552;2022-09-09T04:41:06;5.95;;;1.80;;
73251;SDS011;61473;50.834;4.552;2022-09-09T04:43:32;6.57;;;1.40;;
73251;SDS011;61473;50.834;4.552;2022-09-09T04:45:58;5.10;;;1.45;;
73251;SDS011;61473;50.834;4.552;2022-09-09T04:48:24;4.95;;;1.48;;
73251;SDS011;61473;50.834;4.552;2022-09-09T04:50:57;5.05;;;1.50;;
73251;SDS011;61473;50.834;4.552;2022-09-09T04:53:24;4.00;;;1.23;;
73251;SDS011;61473;50.834;4.552;2022-09-09T04:55:51;5.00;;;1.55;;
73251;SDS011;61473;50.834;4.552;2022-09-09T04:58:18;9.82;;;1.75;;
73251;SDS011;61473;50.834;4.552;2022-09-09T05:00:44;5.47;;;1.60;;
73251;SDS011;61473;50.834;4.552;2022-09-09T05:03:09;4.38;;;1.52;;
73251;SDS011;61473;50.834;4.552;2022-09-09T05:05:35;9.05;;;1.58;;
73251;SDS011;61473;50.834;4.552;2022-09-09T05:08:02;5.93;;;1.63;;
73251;SDS011;61473;50.834;4.552;2022-09-09T05:10:32;8.40;;;2.78;;
73251;SDS011;61473;50.834;4.552;2022-09-09T05:12:59;7.18;;;1.70;;
73251;SDS011;61473;50.834;4.552;2022-09-09T05:15:25;4.50;;;1.67;;
73251;SDS011;61473;50.834;4.552;2022-09-09T05:17:51;6.30;;;1.73;;
73251;SDS011;61473;50.834;4.552;2022-09-09T05:20:20;8.55;;;2.08;;
73251;SDS011;61473;50.834;4.552;2022-09-09T05:22:46;4.43;;;2.20;;
73251;SDS011;61473;50.834;4.552;2022-09-09T05:25:12;5.57;;;1.63;;
73251;SDS011;61473;50.834;4.552;2022-09-09T05:27:37;5.88;;;1.73;;
73251;SDS011;61473;50.834;4.552;2022-09-09T05:30:03;6.07;;;2.10;;
73251;SDS011;61473;50.834;4.552;2022-09-09T05:32:30;9.65;;;1.52;;
73251;SDS011;61473;50.834;4.552;2022-09-09T05:34:59;6.57;;;1.90;;
73251;SDS011;61473;50.834;4.552;2022-09-09T05:37:24;5.95;;;1.58;;
73251;SDS011;61473;50.834;4.552;2022-09-09T05:39:50;8.73;;;2.08;;
73251;SDS011;61473;50.834;4.552;2022-09-09T05:42:16;6.03;;;1.83;;
73251;SDS011;61473;50.834;4.552;2022-09-09T05:44:42;11.25;;;2.45;;
73251;SDS011;61473;50.834;4.552;2022-09-09T05:47:08;9.73;;;2.60;;
73251;SDS011;61473;50.834;4.552;2022-09-09T05:49:34;5.20;;;1.63;;
73251;SDS011;61473;50.834;4.552;2022-09-09T05:52:00;6.60;;;2.25;;
73251;SDS011;61473;50.834;4.552;2022-09-09T05:54:29;4.38;;;1.27;;
73251;SDS011;61473;50.834;4.552;2022-09-09T05:56:55;10.48;;;2.03;;
73251;SDS011;61473;50.834;4.552;2022-09-09T05:59:20;4.47;;;1.63;;
73251;SDS011;61473;50.834;4.552;2022-09-09T06:01:48;5.78;;;1.55;;
73251;SDS011;61473;50.834;4.552;2022-09-09T06:04:13;5.88;;;1.95;;
73251;SDS011;61473;50.834;4.552;2022-09-09T06:06:40;7.35;;;2.22;;
73251;SDS011;61473;50.834;4.552;2022-09-09T06:09:07;9.70;;;2.33;;
73251;SDS011;61473;50.834;4.552;2022-09-09T06:11:37;4.93;;;1.60;;
73251;SDS011;61473;50.834;4.552;2022-09-09T06:14:04;13.93;;;1.98;;
73251;SDS011;61473;50.834;4.552;2022-09-09T06:16:31;6.78;;;2.65;;
73251;SDS011;61473;50.834;4.552;2022-09-09T06:19:03;3.13;;;1.42;;
73251;SDS011;61473;50.834;4.552;2022-09-09T06:21:35;9.75;;;1.98;;
73251;SDS011;61473;50.834;4.552;2022-09-09T06:24:05;8.82;;;2.00;;
73251;SDS011;61473;50.834;4.552;2022-09-09T06:26:33;12.75;;;1.92;;
73251;SDS011;61473;50.834;4.552;2022-09-09T06:28:59;12.52;;;2.70;;
73251;SDS011;61473;50.834;4.552;2022-09-09T06:31:28;7.63;;;2.10;;
73251;SDS011;61473;50.834;4.552;2022-09-09T06:33:55;5.93;;;1.27;;
73251;SDS011;61473;50.834;4.552;2022-09-09T06:36:23;10.48;;;1.70;;
73251;SDS011;61473;50.834;4.552;2022-09-09T06:38:50;7.30;;;2.22;;
73251;SDS011;61473;50.834;4.552;2022-09-09T06:41:17;7.22;;;2.45;;
73251;SDS011;61473;50.834;4.552;2022-09-09T06:43:44;11.02;;;2.60;;
73251;SDS011;61473;50.834;4.552;2022-09-09T06:46:18;8.35;;;1.50;;
73251;SDS011;61473;50.834;4.552;2022-09-09T06:48:45;10.65;;;1.88;;
73251;SDS011;61473;50.834;4.552;2022-09-09T06:51:12;9.38;;;1.92;;
73251;SDS011;61473;50.834;4.552;2022-09-09T06:53:47;9.00;;;2.05;;
73251;SDS011;61473;50.834;4.552;2022-09-09T06:58:41;8.15;;;1.90;;
73251;SDS011;61473;50.834;4.552;2022-09-09T07:01:10;9.02;;;2.05;;
73251;SDS011;61473;50.834;4.552;2022-09-09T07:03:38;10.15;;;1.63;;
73251;SDS011;61473;50.834;4.552;2022-09-09T07:06:04;8.52;;;1.73;;
73251;SDS011;61473;50.834;4.552;2022-09-09T07:08:31;7.57;;;2.47;;
73251;SDS011;61473;50.834;4.552;2022-09-09T07:11:07;8.00;;;2.20;;
73251;SDS011;61473;50.834;4.552;2022-09-09T07:13:33;7.68;;;1.40;;
73251;SDS011;61473;50.834;4.552;2022-09-09T07:16:06;7.70;;;1.90;;
73251;SDS011;61473;50.834;4.552;2022-09-09T07:18:33;5.03;;;1.23;;
73251;SDS011;61473;50.834;4.552;2022-09-09T07:21:00;7.18;;;1.60;;
73251;SDS011;61473;50.834;4.552;2022-09-09T07:23:27;8.18;;;1.90;;
73251;SDS011;61473;50.834;4.552;2022-09-09T07:25:54;7.47;;;1.77;;
73251;SDS011;61473;50.834;4.552;2022-09-09T07:28:21;8.35;;;2.08;;
73251;SDS011;61473;50.834;4.552;2022-09-09T07:30:57;8.30;;;1.50;;
73251;SDS011;61473;50.834;4.552;2022-09-09T07:33:28;5.05;;;1.25;;
73251;SDS011;61473;50.834;4.552;2022-09-09T07:36:02;5.28;;;1.58;;
73251;SDS011;61473;50.834;4.552;2022-09-09T07:38:40;7.50;;;2.10;;
73251;SDS011;61473;50.834;4.552;2022-09-09T07:41:11;9.40;;;2.83;;
73251;SDS011;61473;50.834;4.552;2022-09-09T07:43:41;4.30;;;2.50;;
73251;SDS011;61473;50.834;4.552;2022-09-09T07:46:09;7.47;;;1.88;;
73251;SDS011;61473;50.834;4.552;2022-09-09T07:48:37;5.78;;;1.90;;
73251;SDS011;61473;50.834;4.552;2022-09-09T07:51:11;7.28;;;1.90;;
73251;SDS011;61473;50.834;4.552;2022-09-09T07:53:43;6.13;;;1.70;;
73251;SDS011;61473;50.834;4.552;2022-09-09T07:56:11;3.92;;;1.50;;
73251;SDS011;61473;50.834;4.552;2022-09-09T07:58:38;8.70;;;2.63;;
73251;SDS011;61473;50.834;4.552;2022-09-09T08:01:06;5.47;;;1.67;;
73251;SDS011;61473;50.834;4.552;2022-09-09T08:03:36;9.38;;;1.80;;
73251;SDS011;61473;50.834;4.552;2022-09-09T08:06:03;7.13;;;1.73;;
73251;SDS011;61473;50.834;4.552;2022-09-09T08:08:32;7.40;;;1.80;;
73251;SDS011;61473;50.834;4.552;2022-09-09T08:11:05;9.13;;;2.65;;
73251;SDS011;61473;50.834;4.552;2022-09-09T08:13:37;6.90;;;2.13;;
73251;SDS011;61473;50.834;4.552;2022-09-09T08:16:11;7.85;;;1.73;;
73251;SDS011;61473;50.834;4.552;2022-09-09T08:18:38;5.18;;;1.38;;
73251;SDS011;61473;50.834;4.552;2022-09-09T08:21:14;7.88;;;1.45;;
73251;SDS011;61473;50.834;4.552;2022-09-09T08:23:43;8.80;;;2.13;;
73251;SDS011;61473;50.834;4.552;2022-09-09T08:26:14;7.03;;;2.33;;
73251;SDS011;61473;50.834;4.552;2022-09-09T08:28:42;8.27;;;1.95;;
73251;SDS011;61473;50.834;4.552;2022-09-09T08:31:13;6.15;;;1.50;;
73251;SDS011;61473;50.834;4.552;2022-09-09T08:33:41;5.72;;;1.50;;
73251;SDS011;61473;50.834;4.552;2022-09-09T08:36:10;4.43;;;1.73;;
73251;SDS011;61473;50.834;4.552;2022-09-09T08:38:37;5.03;;;1.45;;
73251;SDS011;61473;50.834;4.552;2022-09-09T08:52:15;9.45;;;2.30;;
73251;SDS011;61473;50.834;4.552;2022-09-09T08:54:44;8.60;;;1.80;;
73251;SDS011;61473;50.834;4.552;2022-09-09T08:57:12;3.67;;;1.40;;
73251;SDS011;61473;50.834;4.552;2022-09-09T08:59:43;6.07;;;1.98;;
73251;SDS011;61473;50.834;4.552;2022-09-09T09:02:14;6.45;;;1.63;;
73251;SDS011;61473;50.834;4.552;2022-09-09T09:08:00;5.47;;;1.73;;
73251;SDS011;61473;50.834;4.552;2022-09-09T09:13:13;3.17;;;1.27;;
73251;SDS011;61473;50.834;4.552;2022-09-09T09:16:00;7.93;;;1.85;;
73251;SDS011;61473;50.834;4.552;2022-09-09T09:18:46;5.00;;;2.08;;
73251;SDS011;61473;50.834;4.552;2022-09-09T09:21:13;3.22;;;1.20;;
73251;SDS011;61473;50.834;4.552;2022-09-09T09:23:59;3.38;;;0.90;;
73251;SDS011;61473;50.834;4.552;2022-09-09T09:26:30;7.18;;;1.27;;
73251;SDS011;61473;50.834;4.552;2022-09-09T09:28:59;8.82;;;1.30;;
73251;SDS011;61473;50.834;4.552;2022-09-09T09:31:28;6.57;;;1.63;;
73251;SDS011;61473;50.834;4.552;2022-09-09T09:33:54;5.82;;;1.30;;
73251;SDS011;61473;50.834;4.552;2022-09-09T09:36:23;4.22;;;1.52;;
73251;SDS011;61473;50.834;4.552;2022-09-09T09:38:59;5.55;;;1.70;;
73251;SDS011;61473;50.834;4.552;2022-09-09T09:44:03;4.32;;;1.95;;
73251;SDS011;61473;50.834;4.552;2022-09-09T09:46:30;6.72;;;1.95;;
73251;SDS011;61473;50.834;4.552;2022-09-09T09:48:57;3.75;;;1.17;;
73251;SDS011;61473;50.834;4.552;2022-09-09T09:51:25;6.13;;;1.77;;
73251;SDS011;61473;50.834;4.552;2022-09-09T09:53:52;4.80;;;1.55;;
73251;SDS011;61473;50.834;4.552;2022-09-09T09:56:25;4.47;;;1.33;;
73251;SDS011;61473;50.834;4.552;2022-09-09T09:58:53;4.18;;;1.35;;
73251;SDS011;61473;50.834;4.552;2022-09-09T10:01:22;4.13;;;1.40;;
73251;SDS011;61473;50.834;4.552;2022-09-09T10:04:31;6.80;;;1.88;;
73251;SDS011;61473;50.834;4.552;2022-09-09T10:06:41;4.00;;;1.48;;
73251;SDS011;61473;50.834;4.552;2022-09-09T10:26:49;8.80;;;1.30;;
73251;SDS011;61473;50.834;4.552;2022-09-09T10:35:29;4.68;;;1.33;;
73251;SDS011;61473;50.834;4.552;2022-09-09T10:38:12;5.65;;;1.95;;
73251;SDS011;61473;50.834;4.552;2022-09-09T10:43:35;6.82;;;2.33;;
73251;SDS011;61473;50.834;4.552;2022-09-09T10:46:28;3.30;;;1.33;;
73251;SDS011;61473;50.834;4.552;2022-09-09T10:56:59;6.50;;;2.30;;
73251;SDS011;61473;50.834;4.552;2022-09-09T10:59:39;5.30;;;2.30;;
73251;SDS011;61473;50.834;4.552;2022-09-09T11:02:27;6.30;;;1.98;;
73251;SDS011;61473;50.834;4.552;2022-09-09T11:04:55;5.70;;;1.70;;
73251;SDS011;61473;50.834;4.552;2022-09-09T11:07:47;7.35;;;2.08;;
73251;SDS011;61473;50.834;4.552;2022-09-09T11:10:41;4.32;;;1.52;;
73251;SDS011;61473;50.834;4.552;2022-09-09T11:19:04;9.02;;;1.52;;
73251;SDS011;61473;50.834;4.552;2022-09-09T11:21:36;6.90;;;1.40;;
73251;SDS011;61473;50.834;4.552;2022-09-09T11:24:15;6.47;;;1.10;;
73251;SDS011;61473;50.834;4.552;2022-09-09T11:26:42;3.78;;;1.13;;
73251;SDS011;61473;50.834;4.552;2022-09-09T11:29:42;7.82;;;1.65;;
73251;SDS011;61473;50.834;4.552;2022-09-09T11:34:57;4.35;;;1.38;;
73251;SDS011;61473;50.834;4.552;2022-09-09T11:40:27;4.63;;;1.10;;
73251;SDS011;61473;50.834;4.552;2022-09-09T11:45:49;5.63;;;1.98;;
73251;SDS011;61473;50.834;4.552;2022-09-09T11:48:34;2.05;;;1.10;;
73251;SDS011;61473;50.834;4.552;2022-09-09T11:51:05;5.60;;;1.60;;
73251;SDS011;61473;50.834;4.552;2022-09-09T11:53:33;3.67;;;0.95;;
73251;SDS011;61473;50.834;4.552;2022-09-09T11:56:01;3.83;;;0.75;;
73251;SDS011;61473;50.834;4.552;2022-09-09T11:58:42;5.43;;;1.10;;
73251;SDS011;61473;50.834;4.552;2022-09-09T12:01:14;7.75;;;2.05;;
73251;SDS011;61473;50.834;4.552;2022-09-09T12:03:50;4.35;;;1.20;;
73251;SDS011;61473;50.834;4.552;2022-09-09T12:06:30;5.05;;;1.23;;
73251;SDS011;61473;50.834;4.552;2022-09-09T12:09:04;5.00;;;1.15;;
73251;SDS011;61473;50.834;4.552;2022-09-09T12:11:37;4.97;;;1.77;;
73251;SDS011;61473;50.834;4.552;2022-09-09T12:14:02;6.22;;;1.55;;
73251;SDS011;61473;50.834;4.552;2022-09-09T12:16:33;2.42;;;0.90;;
73251;SDS011;61473;50.834;4.552;2022-09-09T12:19:04;5.55;;;1.90;;
73251;SDS011;61473;50.834;4.552;2022-09-09T12:25:03;3.75;;;1.77;;
73251;SDS011;61473;50.834;4.552;2022-09-09T12:33:39;5.18;;;1.48;;
73251;SDS011;61473;50.834;4.552;2022-09-09T12:36:11;3.95;;;1.38;;
73251;SDS011;61473;50.834;4.552;2022-09-09T12:38:52;3.97;;;1.38;;
73251;SDS011;61473;50.834;4.552;2022-09-09T12:43:46;5.43;;;1.98;;
73251;SDS011;61473;50.834;4.552;2022-09-09T12:46:20;3.17;;;1.70;;
73251;SDS011;61473;50.834;4.552;2022-09-09T12:48:56;6.45;;;1.30;;
73251;SDS011;61473;50.834;4.552;2022-09-09T12:51:27;6.60;;;1.02;;
73251;SDS011;61473;50.834;4.552;2022-09-09T12:53:55;5.40;;;1.38;;
73251;SDS011;61473;50.834;4.552;2022-09-09T12:56:22;4.20;;;1.55;;
73251;SDS011;61473;50.834;4.552;2022-09-09T12:58:54;2.38;;;1.10;;
73251;SDS011;61473;50.834;4.552;2022-09-09T13:01:25;3.88;;;1.10;;
73251;SDS011;61473;50.834;4.552;2022-09-09T13:03:53;3.58;;;1.10;;
73251;SDS011;61473;50.834;4.552;2022-09-09T13:06:23;5.03;;;1.60;;
73251;SDS011;61473;50.834;4.552;2022-09-09T13:08:53;5.15;;;1.08;;
73251;SDS011;61473;50.834;4.552;2022-09-09T13:11:21;3.90;;;1.15;;
73251;SDS011;61473;50.834;4.552;2022-09-09T13:13:54;3.40;;;1.02;;
73251;SDS011;61473;50.834;4.552;2022-09-09T13:18:58;5.97;;;0.95;;
73251;SDS011;61473;50.834;4.552;2022-09-09T13:21:38;3.45;;;1.00;;
73251;SDS011;61473;50.834;4.552;2022-09-09T13:24:05;5.63;;;1.13;;
73251;SDS011;61473;50.834;4.552;2022-09-09T13:26:53;4.57;;;1.17;;
73251;SDS011;61473;50.834;4.552;2022-09-09T13:29:21;4.43;;;1.10;;
73251;SDS011;61473;50.834;4.552;2022-09-09T13:31:47;5.47;;;1.58;;
73251;SDS011;61473;50.834;4.552;2022-09-09T13:37:03;6.85;;;1.25;;
73251;SDS011;61473;50.834;4.552;2022-09-09T13:39:34;2.35;;;0.93;;
73251;SDS011;61473;50.834;4.552;2022-09-09T13:42:02;5.22;;;1.20;;
73251;SDS011;61473;50.834;4.552;2022-09-09T13:44:31;6.78;;;1.58;;
73251;SDS011;61473;50.834;4.552;2022-09-09T13:47:15;5.25;;;1.35;;
73251;SDS011;61473;50.834;4.552;2022-09-09T13:49:44;4.57;;;1.10;;
73251;SDS011;61473;50.834;4.552;2022-09-09T13:52:12;5.20;;;1.70;;
73251;SDS011;61473;50.834;4.552;2022-09-09T13:54:39;3.75;;;1.20;;
73251;SDS011;61473;50.834;4.552;2022-09-09T13:57:06;3.65;;;1.25;;
73251;SDS011;61473;50.834;4.552;2022-09-09T13:59:47;3.50;;;0.98;;
73251;SDS011;61473;50.834;4.552;2022-09-09T14:02:13;4.05;;;0.93;;
73251;SDS011;61473;50.834;4.552;2022-09-09T14:04:41;2.33;;;0.93;;
73251;SDS011;61473;50.834;4.552;2022-09-09T14:07:09;3.75;;;1.25;;
73251;SDS011;61473;50.834;4.552;2022-09-09T14:09:38;2.92;;;0.90;;
73251;SDS011;61473;50.834;4.552;2022-09-09T14:12:05;3.72;;;1.38;;
73251;SDS011;61473;50.834;4.552;2022-09-09T14:14:34;1.52;;;0.50;;
73251;SDS011;61473;50.834;4.552;2022-09-09T14:16:59;3.10;;;1.63;;
73251;SDS011;61473;50.834;4.552;2022-09-09T14:19:25;4.00;;;0.90;;
73251;SDS011;61473;50.834;4.552;2022-09-09T14:21:51;10.48;;;1.33;;
73251;SDS011;61473;50.834;4.552;2022-09-09T14:24:17;2.78;;;0.90;;
73251;SDS011;61473;50.834;4.552;2022-09-09T14:26:42;4.57;;;1.70;;
73251;SDS011;61473;50.834;4.552;2022-09-09T14:29:08;7.95;;;1.35;;
73251;SDS011;61473;50.834;4.552;2022-09-09T14:31:34;7.40;;;1.48;;
73251;SDS011;61473;50.834;4.552;2022-09-09T14:34:00;2.63;;;0.90;;
73251;SDS011;61473;50.834;4.552;2022-09-09T14:36:25;6.55;;;0.68;;
73251;SDS011;61473;50.834;4.552;2022-09-09T14:38:51;3.78;;;1.27;;
73251;SDS011;61473;50.834;4.552;2022-09-09T14:41:17;2.60;;;0.90;;
73251;SDS011;61473;50.834;4.552;2022-09-09T14:43:45;3.97;;;1.13;;
73251;SDS011;61473;50.834;4.552;2022-09-09T14:46:12;3.58;;;1.10;;
73251;SDS011;61473;50.834;4.552;2022-09-09T14:48:39;3.42;;;1.40;;
73251;SDS011;61473;50.834;4.552;2022-09-09T14:53:35;2.75;;;1.23;;
73251;SDS011;61473;50.834;4.552;2022-09-09T14:56:24;4.60;;;1.20;;
73251;SDS011;61473;50.834;4.552;2022-09-09T14:58:52;6.45;;;2.17;;
73251;SDS011;61473;50.834;4.552;2022-09-09T15:01:20;2.83;;;0.98;;
73251;SDS011;61473;50.834;4.552;2022-09-09T15:03:57;4.30;;;0.90;;
73251;SDS011;61473;50.834;4.552;2022-09-09T15:06:28;2.75;;;0.88;;
73251;SDS011;61473;50.834;4.552;2022-09-09T15:08:56;2.63;;;1.35;;
73251;SDS011;61473;50.834;4.552;2022-09-09T15:11:23;4.03;;;1.40;;
73251;SDS011;61473;50.834;4.552;2022-09-09T15:13:51;6.60;;;1.42;;
73251;SDS011;61473;50.834;4.552;2022-09-09T15:16:18;4.90;;;1.05;;
73251;SDS011;61473;50.834;4.552;2022-09-09T15:18:45;4.18;;;1.15;;
73251;SDS011;61473;50.834;4.552;2022-09-09T15:21:15;3.22;;;1.27;;
73251;SDS011;61473;50.834;4.552;2022-09-09T15:23:42;2.00;;;0.90;;
73251;SDS011;61473;50.834;4.552;2022-09-09T15:26:08;5.35;;;1.40;;
73251;SDS011;61473;50.834;4.552;2022-09-09T15:28:35;5.30;;;1.60;;
73251;SDS011;61473;50.834;4.552;2022-09-09T15:31:06;11.77;;;3.22;;
73251;SDS011;61473;50.834;4.552;2022-09-09T15:33:35;9.10;;;3.15;;
73251;SDS011;61473;50.834;4.552;2022-09-09T15:38:46;15.13;;;3.00;;
73251;SDS011;61473;50.834;4.552;2022-09-09T15:41:12;26.13;;;5.40;;
73251;SDS011;61473;50.834;4.552;2022-09-09T15:43:38;26.63;;;6.72;;
73251;SDS011;61473;50.834;4.552;2022-09-09T15:51:11;23.83;;;5.45;;
73251;SDS011;61473;50.834;4.552;2022-09-09T15:53:37;26.75;;;6.25;;
73251;SDS011;61473;50.834;4.552;2022-09-09T15:56:06;21.73;;;5.53;;
73251;SDS011;61473;50.834;4.552;2022-09-09T15:58:33;21.48;;;5.18;;
73251;SDS011;61473;50.834;4.552;2022-09-09T16:01:01;22.27;;;5.75;;
73251;SDS011;61473;50.834;4.552;2022-09-09T16:03:29;21.63;;;4.63;;
73251;SDS011;61473;50.834;4.552;2022-09-09T16:06:06;13.35;;;4.65;;
73251;SDS011;61473;50.834;4.552;2022-09-09T16:08:33;16.13;;;4.55;;
73251;SDS011;61473;50.834;4.552;2022-09-09T16:11:04;27.20;;;5.55;;
73251;SDS011;61473;50.834;4.552;2022-09-09T16:13:43;19.15;;;4.93;;
73251;SDS011;61473;50.834;4.552;2022-09-09T16:16:10;17.25;;;4.28;;
73251;SDS011;61473;50.834;4.552;2022-09-09T16:18:38;12.55;;;3.47;;
73251;SDS011;61473;50.834;4.552;2022-09-09T16:21:05;20.05;;;4.78;;
73251;SDS011;61473;50.834;4.552;2022-09-09T16:23:33;13.98;;;4.43;;
73251;SDS011;61473;50.834;4.552;2022-09-09T16:26:00;11.35;;;4.60;;
73251;SDS011;61473;50.834;4.552;2022-09-09T16:28:26;11.38;;;3.33;;
73251;SDS011;61473;50.834;4.552;2022-09-09T16:30:52;10.80;;;3.25;;
73251;SDS011;61473;50.834;4.552;2022-09-09T16:33:18;7.93;;;2.83;;
73251;SDS011;61473;50.834;4.552;2022-09-09T16:35:44;6.85;;;2.30;;
73251;SDS011;61473;50.834;4.552;2022-09-09T16:38:10;8.85;;;2.53;;
73251;SDS011;61473;50.834;4.552;2022-09-09T16:40:39;11.40;;;3.17;;
73251;SDS011;61473;50.834;4.552;2022-09-09T16:43:06;6.72;;;2.05;;
73251;SDS011;61473;50.834;4.552;2022-09-09T16:45:32;10.48;;;2.60;;
73251;SDS011;61473;50.834;4.552;2022-09-09T16:48:01;5.18;;;1.67;;
73251;SDS011;61473;50.834;4.552;2022-09-09T16:50:27;3.90;;;1.80;;
73251;SDS011;61473;50.834;4.552;2022-09-09T16:52:52;4.20;;;1.98;;
73251;SDS011;61473;50.834;4.552;2022-09-09T16:55:18;4.20;;;2.00;;
73251;SDS011;61473;50.834;4.552;2022-09-09T16:57:45;4.55;;;2.05;;
73251;SDS011;61473;50.834;4.552;2022-09-09T17:00:15;3.92;;;1.58;;
73251;SDS011;61473;50.834;4.552;2022-09-09T17:02:43;3.22;;;1.35;;
73251;SDS011;61473;50.834;4.552;2022-09-09T17:05:10;4.38;;;1.40;;
73251;SDS011;61473;50.834;4.552;2022-09-09T17:07:37;2.47;;;1.30;;
73251;SDS011;61473;50.834;4.552;2022-09-09T17:10:04;4.28;;;1.80;;
73251;SDS011;61473;50.834;4.552;2022-09-09T17:12:31;4.80;;;1.83;;
73251;SDS011;61473;50.834;4.552;2022-09-09T17:14:57;3.20;;;1.25;;
73251;SDS011;61473;50.834;4.552;2022-09-09T17:17:24;1.58;;;1.20;;
73251;SDS011;61473;50.834;4.552;2022-09-09T17:19:51;3.85;;;1.25;;